Time;durP1;ratioP1;P1;durP2;ratioP2;P2;SDS_P1;SDS_P2;PMS_P1;PMS_P2;Temp;Humidity;BMP_temperature;BMP_pressure;BME280_temperature;BME280_humidity;BME280_pressure;Samples;Min_cycle;Max_cycle;Signal;HPM_P1;HPM_P2
2021/05/02 00:02:10;;;;;;;35.40;21.25;;;7.60;55.70;;;;;;5033192;28;20407;-81
2021/05/02 00:04:36;;;;;;;32.50;21.63;;;7.50;56.10;;;;;;5033960;28;20471;-81
2021/05/02 00:07:03;;;;;;;31.20;21.23;;;7.50;56.50;;;;;;5033000;28;20405;-82
2021/05/02 00:09:30;;;;;;;30.20;21.25;;;7.40;57.30;;;;;;5033149;28;20385;-82
2021/05/02 00:11:56;;;;;;;31.50;21.80;;;7.40;57.30;;;;;;5033056;28;20389;-80
2021/05/02 00:14:22;;;;;;;34.92;21.40;;;7.40;57.30;;;;;;5031747;28;20465;-82
2021/05/02 00:16:50;;;;;;;36.20;21.80;;;7.40;57.60;;;;;;5035965;28;20372;-81
2021/05/02 00:19:17;;;;;;;34.50;22.38;;;7.40;57.10;;;;;;5035247;28;20450;-82
2021/05/02 00:21:45;;;;;;;32.20;22.30;;;7.30;57.00;;;;;;5035751;28;20447;-80
2021/05/02 00:24:12;;;;;;;35.80;21.30;;;7.30;57.60;;;;;;5032008;28;20917;-82
2021/05/02 00:26:38;;;;;;;32.17;20.50;;;7.20;57.30;;;;;;5032015;28;20435;-81
2021/05/02 00:29:06;;;;;;;34.90;20.98;;;7.20;57.50;;;;;;5033853;28;20407;-82
2021/05/02 00:31:31;;;;;;;31.83;21.63;;;7.10;57.40;;;;;;5031689;28;20388;-80
2021/05/02 00:33:57;;;;;;;31.48;21.25;;;7.00;58.00;;;;;;5029718;28;20409;-82
2021/05/02 00:36:24;;;;;;;31.55;21.08;;;7.00;58.40;;;;;;5028973;28;20435;-79
2021/05/02 00:38:50;;;;;;;34.83;21.20;;;7.00;58.70;;;;;;5031436;28;20408;-80
2021/05/02 00:41:27;;;;;;;32.73;21.40;;;7.00;58.50;;;;;;5030709;28;20395;-80
2021/05/02 00:43:58;;;;;;;31.45;21.33;;;6.90;59.10;;;;;;5030757;28;20400;-81
2021/05/02 00:46:38;;;;;;;32.88;21.25;;;6.90;59.80;;;;;;5031424;28;20773;-80
2021/05/02 00:49:12;;;;;;;33.60;21.02;;;6.90;60.00;;;;;;5032273;28;20393;-82
2021/05/02 00:51:39;;;;;;;30.40;21.33;;;6.90;60.50;;;;;;5033317;28;20444;-82
2021/05/02 00:54:11;;;;;;;32.70;20.33;;;6.80;60.90;;;;;;5036618;28;20420;-80
2021/05/02 00:57:01;;;;;;;32.78;21.13;;;6.80;61.40;;;;;;5036111;28;20411;-82
2021/05/02 00:59:38;;;;;;;31.77;20.90;;;6.80;61.40;;;;;;5031062;28;20401;-80
2021/05/02 01:02:05;;;;;;;31.77;21.20;;;6.80;61.60;;;;;;5035998;28;20384;-81
2021/05/02 01:04:32;;;;;;;35.25;21.45;;;6.80;61.90;;;;;;5036005;28;20396;-82
2021/05/02 01:07:02;;;;;;;32.22;21.55;;;6.70;62.40;;;;;;5034732;28;20392;-81
2021/05/02 01:09:30;;;;;;;34.63;21.27;;;6.80;63.60;;;;;;5035236;28;20408;-82
2021/05/02 01:12:01;;;;;;;35.40;21.65;;;6.70;63.20;;;;;;5033583;28;20400;-81
2021/05/02 01:14:30;;;;;;;35.78;20.95;;;6.60;64.20;;;;;;5029067;28;20409;-80
2021/05/02 01:16:58;;;;;;;33.67;22.13;;;6.60;64.90;;;;;;5028979;28;20382;-82
2021/05/02 01:19:27;;;;;;;34.65;21.85;;;6.60;65.50;;;;;;5029662;28;20408;-80
2021/05/02 01:21:56;;;;;;;35.33;20.73;;;6.60;65.70;;;;;;5055448;28;20399;-80
2021/05/02 01:24:23;;;;;;;37.00;21.83;;;6.60;65.70;;;;;;5049335;28;20435;-81
2021/05/02 01:26:48;;;;;;;36.10;21.55;;;6.50;66.20;;;;;;5031929;28;20400;-81
2021/05/02 01:29:15;;;;;;;32.33;21.90;;;6.50;66.90;;;;;;5029719;28;20754;-81
2021/05/02 01:31:42;;;;;;;32.97;21.42;;;6.40;67.50;;;;;;5027978;28;20388;-80
2021/05/02 01:34:09;;;;;;;37.75;23.00;;;6.40;67.90;;;;;;5028088;28;20401;-82
2021/05/02 01:36:35;;;;;;;38.10;22.40;;;6.40;68.10;;;;;;5059349;23;20498;-76
2021/05/02 01:39:03;;;;;;;42.42;24.42;;;6.40;68.30;;;;;;5067009;28;20382;-75
2021/05/02 01:41:29;;;;;;;34.15;21.58;;;6.40;68.30;;;;;;5052072;28;20389;-75
2021/05/02 01:43:55;;;;;;;34.47;22.60;;;6.40;68.30;;;;;;5050363;28;20743;-77
2021/05/02 01:46:33;;;;;;;37.53;22.77;;;6.40;68.70;;;;;;5051445;28;20385;-76
2021/05/02 01:48:59;;;;;;;34.65;22.83;;;6.50;67.80;;;;;;5051946;28;20386;-76
2021/05/02 01:51:26;;;;;;;34.63;22.58;;;6.60;67.10;;;;;;5052596;28;20377;-76
2021/05/02 01:53:52;;;;;;;34.13;23.00;;;6.60;66.50;;;;;;5039996;28;20944;-76
2021/05/02 01:56:19;;;;;;;36.03;23.80;;;6.60;66.40;;;;;;5032581;28;20419;-77
2021/05/02 01:58:45;;;;;;;35.40;23.17;;;6.70;65.70;;;;;;5031746;28;20391;-77
2021/05/02 02:01:15;;;;;;;35.43;21.90;;;6.80;65.40;;;;;;5032510;28;20449;-77
2021/05/02 02:03:44;;;;;;;34.28;22.05;;;6.80;65.10;;;;;;5033145;28;20391;-77
2021/05/02 02:06:13;;;;;;;40.08;24.63;;;6.70;65.80;;;;;;5033064;28;20905;-77
2021/05/02 02:08:38;;;;;;;36.83;24.15;;;6.70;66.80;;;;;;5032984;28;20395;-77
2021/05/02 02:11:04;;;;;;;37.50;23.33;;;6.60;67.80;;;;;;5033513;28;20394;-76
2021/05/02 02:13:30;;;;;;;38.47;23.52;;;6.60;67.90;;;;;;5040955;28;20412;-76
2021/05/02 02:15:56;;;;;;;36.30;22.83;;;6.70;67.90;;;;;;5052682;28;20389;-76
2021/05/02 02:18:21;;;;;;;37.67;23.10;;;6.60;68.30;;;;;;5053798;28;20374;-76
2021/05/02 02:20:53;;;;;;;34.50;23.92;;;6.60;68.30;;;;;;5057108;28;20896;-77
2021/05/02 02:23:22;;;;;;;32.78;23.00;;;6.60;68.90;;;;;;5067845;28;20406;-77
2021/05/02 02:25:49;;;;;;;36.90;24.23;;;6.70;67.70;;;;;;5051847;28;20424;-77
2021/05/02 02:28:16;;;;;;;35.43;22.70;;;6.90;66.30;;;;;;5033848;28;20427;-77
2021/05/02 02:30:45;;;;;;;36.65;24.30;;;6.90;65.20;;;;;;5040839;28;20433;-77
2021/05/02 02:33:11;;;;;;;36.88;24.77;;;6.90;66.10;;;;;;5048757;28;20405;-77
2021/05/02 02:35:47;;;;;;;35.88;24.02;;;7.00;63.30;;;;;;5051469;28;20477;-77
2021/05/02 02:38:14;;;;;;;34.95;24.42;;;7.10;63.00;;;;;;5042785;28;20379;-77
2021/05/02 02:40:41;;;;;;;39.72;26.75;;;7.10;62.10;;;;;;5042439;28;20406;-77
2021/05/02 02:43:09;;;;;;;39.58;24.60;;;7.10;63.20;;;;;;5061654;28;20423;-76
2021/05/02 02:45:38;;;;;;;36.13;23.73;;;7.20;61.40;;;;;;5068379;28;20393;-77
2021/05/02 02:48:05;;;;;;;34.78;24.38;;;7.20;60.80;;;;;;5069741;28;20381;-76
2021/05/02 02:50:32;;;;;;;37.60;24.67;;;7.30;60.30;;;;;;5068761;28;20437;-77
2021/05/02 02:53:08;;;;;;;42.58;27.70;;;7.30;59.10;;;;;;5070444;28;20409;-76
2021/05/02 02:55:37;;;;;;;38.47;25.77;;;7.10;59.80;;;;;;5056059;28;20394;-77
2021/05/02 02:58:05;;;;;;;44.75;26.70;;;7.20;60.50;;;;;;5066768;28;20424;-77
2021/05/02 03:00:35;;;;;;;43.42;27.75;;;7.20;60.90;;;;;;5068268;28;20381;-76
2021/05/02 03:03:08;;;;;;;37.65;26.60;;;7.10;61.60;;;;;;5069882;28;20411;-76
2021/05/02 03:05:36;;;;;;;38.25;25.60;;;7.20;60.40;;;;;;5068736;28;20385;-76
2021/05/02 03:08:04;;;;;;;38.97;27.35;;;7.30;60.00;;;;;;5066480;28;20468;-77
2021/05/02 03:10:29;;;;;;;41.80;26.80;;;7.30;60.30;;;;;;5069136;28;20399;-76
2021/05/02 03:12:56;;;;;;;43.43;28.80;;;7.20;60.50;;;;;;5067574;28;20417;-76
2021/05/02 03:15:22;;;;;;;43.83;28.58;;;7.10;62.40;;;;;;5064563;28;20381;-77
2021/05/02 03:18:01;;;;;;;43.90;28.33;;;7.10;63.70;;;;;;5056030;28;20418;-77
2021/05/02 03:20:28;;;;;;;41.78;26.90;;;7.30;60.20;;;;;;5050830;28;20402;-76
2021/05/02 03:23:02;;;;;;;45.72;28.80;;;7.30;61.00;;;;;;5064933;28;20408;-76
2021/05/02 03:25:30;;;;;;;43.22;28.20;;;7.20;61.50;;;;;;5063649;28;20393;-77
2021/05/02 03:28:02;;;;;;;45.28;29.17;;;7.20;62.30;;;;;;5067882;28;20378;-76
2021/05/02 03:30:28;;;;;;;44.85;29.08;;;7.00;65.30;;;;;;5074377;28;20386;-77
2021/05/02 03:32:56;;;;;;;39.70;27.77;;;7.10;64.40;;;;;;5052834;28;20441;-77
2021/05/02 03:35:31;;;;;;;43.60;27.53;;;7.10;64.50;;;;;;5036225;28;20973;-77
2021/05/02 03:38:24;;;;;;;43.22;27.58;;;7.30;63.60;;;;;;5035737;28;20478;-76
2021/05/02 03:40:50;;;;;;;41.58;27.00;;;7.30;62.80;;;;;;5036383;28;20376;-76
2021/05/02 03:43:16;;;;;;;44.60;29.00;;;7.20;63.60;;;;;;5056494;28;20919;-76
2021/05/02 03:45:43;;;;;;;41.05;26.10;;;7.20;64.70;;;;;;5052284;28;20401;-77
2021/05/02 03:48:09;;;;;;;44.35;27.63;;;7.20;63.60;;;;;;5057511;28;20428;-77
2021/05/02 03:50:35;;;;;;;40.95;26.50;;;7.20;63.40;;;;;;5057673;28;20389;-76
2021/05/02 03:53:01;;;;;;;42.22;25.58;;;7.20;64.00;;;;;;5058120;28;20400;-77
2021/05/02 03:55:27;;;;;;;41.17;25.45;;;7.00;64.20;;;;;;5063598;28;20392;-77
2021/05/02 03:57:52;;;;;;;46.67;28.10;;;6.90;65.30;;;;;;5064842;28;20418;-77
2021/05/02 04:00:19;;;;;;;45.77;29.80;;;6.90;66.10;;;;;;5064807;28;20397;-76
2021/05/02 04:02:44;;;;;;;47.10;29.33;;;6.90;67.10;;;;;;5065618;28;20400;-76
2021/05/02 04:05:10;;;;;;;50.07;28.77;;;6.90;67.50;;;;;;5067936;28;20886;-76
2021/05/02 04:07:36;;;;;;;45.55;28.20;;;7.10;65.60;;;;;;5071332;28;20418;-76
2021/05/02 04:10:02;;;;;;;45.22;28.27;;;7.10;64.20;;;;;;5083655;28;20575;-77
2021/05/02 04:12:27;;;;;;;42.80;28.23;;;7.10;65.20;;;;;;5061994;28;20401;-76
2021/05/02 04:14:53;;;;;;;46.33;28.20;;;7.00;66.20;;;;;;5051779;28;20429;-76
2021/05/02 04:17:18;;;;;;;44.00;28.00;;;7.10;67.50;;;;;;5062719;28;20377;-76
2021/05/02 04:19:46;;;;;;;42.85;28.30;;;7.20;64.40;;;;;;5063895;28;20404;-76
2021/05/02 04:22:17;;;;;;;46.45;28.90;;;7.10;65.10;;;;;;5055126;28;20399;-76
2021/05/02 04:24:43;;;;;;;44.80;26.73;;;7.10;66.90;;;;;;5034243;28;20414;-76
2021/05/02 04:27:10;;;;;;;44.33;27.60;;;7.30;62.70;;;;;;5034936;28;20486;-76
2021/05/02 04:29:37;;;;;;;43.47;27.02;;;7.30;63.90;;;;;;5034884;28;20389;-76
2021/05/02 04:32:03;;;;;;;41.38;26.60;;;7.40;62.70;;;;;;5037696;28;20858;-76
2021/05/02 04:34:29;;;;;;;41.37;26.43;;;7.20;64.30;;;;;;5053306;28;20492;-76
2021/05/02 04:36:57;;;;;;;41.22;25.27;;;7.30;65.90;;;;;;5054174;28;20759;-76
2021/05/02 04:39:23;;;;;;;40.78;26.35;;;7.40;62.20;;;;;;5053736;28;20377;-74
2021/05/02 04:41:49;;;;;;;38.25;25.70;;;7.20;63.60;;;;;;5047863;28;20757;-74
2021/05/02 04:44:15;;;;;;;40.47;24.73;;;7.20;66.00;;;;;;5042643;28;20418;-73
2021/05/02 04:46:41;;;;;;;43.17;26.27;;;7.40;61.90;;;;;;5038464;28;20402;-74
2021/05/02 04:49:08;;;;;;;43.13;25.80;;;7.40;62.50;;;;;;5033112;28;20383;-74
2021/05/02 04:51:34;;;;;;;38.85;23.67;;;7.30;63.20;;;;;;5041829;28;20401;-74
2021/05/02 04:53:59;;;;;;;36.90;23.63;;;7.30;63.10;;;;;;5052479;28;20401;-74
2021/05/02 04:56:25;;;;;;;33.28;22.20;;;7.30;63.40;;;;;;5052483;28;20389;-73
2021/05/02 04:58:51;;;;;;;34.00;22.40;;;7.60;59.10;;;;;;5052352;28;20374;-74
2021/05/02 05:01:16;;;;;;;35.83;22.37;;;7.60;58.60;;;;;;5051420;28;20392;-74
2021/05/02 05:03:44;;;;;;;31.53;20.67;;;7.50;59.20;;;;;;5048200;28;20408;-73
2021/05/02 05:06:09;;;;;;;35.30;21.65;;;7.60;57.60;;;;;;5040583;28;20401;-74
2021/05/02 05:08:35;;;;;;;29.90;18.90;;;7.60;58.10;;;;;;5052398;28;20390;-74
2021/05/02 05:11:01;;;;;;;33.13;20.40;;;7.70;56.50;;;;;;5050651;28;20392;-75
2021/05/02 05:13:27;;;;;;;31.88;19.33;;;7.50;57.40;;;;;;5045757;28;20409;-74
2021/05/02 05:15:56;;;;;;;28.42;16.63;;;7.50;56.90;;;;;;5037153;28;20490;-74
2021/05/02 05:18:22;;;;;;;28.25;17.38;;;7.60;55.90;;;;;;5050485;28;20397;-74
2021/05/02 05:20:49;;;;;;;26.05;16.13;;;7.50;55.80;;;;;;5054002;28;20479;-73
2021/05/02 05:23:14;;;;;;;26.70;15.40;;;7.40;56.30;;;;;;5071703;28;20402;-74
2021/05/02 05:25:41;;;;;;;27.17;15.60;;;7.40;55.90;;;;;;5045233;28;20474;-74
2021/05/02 05:28:06;;;;;;;26.45;14.57;;;7.40;56.30;;;;;;5031795;28;20398;-74
2021/05/02 05:30:32;;;;;;;23.42;15.63;;;7.30;56.50;;;;;;5040110;28;20397;-75
2021/05/02 05:33:06;;;;;;;27.33;15.25;;;7.20;57.70;;;;;;5050845;28;20946;-74
2021/05/02 05:35:32;;;;;;;22.27;13.57;;;7.30;56.40;;;;;;5042751;28;20903;-75
2021/05/02 05:37:58;;;;;;;22.08;12.45;;;7.30;54.80;;;;;;5032760;28;20866;-75
2021/05/02 05:40:24;;;;;;;22.13;14.20;;;7.20;54.70;;;;;;5039568;28;20408;-74
2021/05/02 05:42:50;;;;;;;21.23;11.80;;;7.30;55.40;;;;;;5051850;28;20373;-74
2021/05/02 05:45:19;;;;;;;23.25;11.88;;;7.40;53.50;;;;;;5051434;28;20506;-74
2021/05/02 05:47:49;;;;;;;22.30;11.25;;;7.40;53.40;;;;;;5052488;28;20386;-74
2021/05/02 05:50:15;;;;;;;21.77;10.70;;;7.40;52.70;;;;;;5046087;28;20426;-74
2021/05/02 05:52:42;;;;;;;14.48;9.43;;;7.40;51.40;;;;;;5032374;28;20473;-75
2021/05/02 05:55:08;;;;;;;21.88;10.07;;;7.30;52.10;;;;;;5042370;28;20424;-74
2021/05/02 05:57:34;;;;;;;18.33;9.48;;;7.30;51.80;;;;;;5057924;28;20417;-75
2021/05/02 06:00:00;;;;;;;12.37;8.17;;;7.40;51.30;;;;;;5050239;28;20402;-75
2021/05/02 06:02:25;;;;;;;10.30;6.65;;;7.50;50.40;;;;;;5041303;28;20379;-75
2021/05/02 06:04:51;;;;;;;14.30;8.88;;;7.40;49.80;;;;;;5039495;28;20406;-75
2021/05/02 06:07:16;;;;;;;16.70;8.25;;;7.50;50.30;;;;;;5032535;28;20430;-75
2021/05/02 06:09:42;;;;;;;11.48;6.22;;;7.60;49.20;;;;;;5031185;28;20408;-74
2021/05/02 06:12:08;;;;;;;11.60;7.85;;;7.60;48.20;;;;;;5031318;28;20821;-75
2021/05/02 06:14:33;;;;;;;12.73;7.30;;;7.60;48.10;;;;;;5033944;28;20456;-75
2021/05/02 06:16:59;;;;;;;16.87;8.13;;;7.80;47.60;;;;;;5049946;28;20492;-75
2021/05/02 06:19:27;;;;;;;15.73;6.90;;;8.00;46.60;;;;;;5047160;28;20410;-75
2021/05/02 06:21:52;;;;;;;17.00;7.75;;;8.10;44.70;;;;;;5055063;28;20726;-75
2021/05/02 06:24:18;;;;;;;12.98;7.38;;;8.20;44.90;;;;;;5063846;28;20400;-75
2021/05/02 06:26:43;;;;;;;12.93;6.22;;;8.10;44.70;;;;;;5046734;28;20845;-74
2021/05/02 06:29:09;;;;;;;11.88;5.25;;;8.20;42.50;;;;;;5037806;28;20403;-74
2021/05/02 06:31:35;;;;;;;13.93;6.80;;;8.00;43.70;;;;;;5040141;28;21040;-76
2021/05/02 06:34:00;;;;;;;13.00;6.47;;;8.00;44.80;;;;;;5038954;28;20505;-75
2021/05/02 06:36:26;;;;;;;14.13;7.27;;;8.20;43.90;;;;;;5055215;28;20397;-75
2021/05/02 06:38:51;;;;;;;14.53;7.10;;;8.50;46.90;;;;;;5035530;28;20920;-71
2021/05/02 06:41:17;;;;;;;8.27;6.10;;;8.80;43.50;;;;;;5048666;28;20811;-71
2021/05/02 06:43:42;;;;;;;11.23;4.77;;;9.00;39.00;;;;;;5042540;28;20393;-71
2021/05/02 06:46:26;;;;;;;11.10;5.10;;;8.50;39.70;;;;;;5042190;28;20435;-71
2021/05/02 06:48:52;;;;;;;14.20;6.35;;;8.40;41.60;;;;;;5050582;28;20411;-72
2021/05/02 06:51:18;;;;;;;11.63;5.70;;;8.40;42.00;;;;;;5049452;28;20783;-73
2021/05/02 06:53:43;;;;;;;10.90;5.47;;;8.40;41.60;;;;;;5050323;28;20404;-71
2021/05/02 06:56:09;;;;;;;11.40;6.13;;;8.40;42.70;;;;;;5048436;28;21009;-71
2021/05/02 06:58:34;;;;;;;9.67;5.60;;;8.30;43.20;;;;;;5036709;28;20399;-73
2021/05/02 07:01:00;;;;;;;11.25;6.22;;;8.30;43.90;;;;;;5044358;28;20484;-74
2021/05/02 07:03:25;;;;;;;14.75;5.25;;;8.30;44.40;;;;;;5045798;28;20413;-72
2021/05/02 07:05:53;;;;;;;14.73;6.00;;;8.30;44.10;;;;;;5057564;28;20402;-71
2021/05/02 07:08:19;;;;;;;11.40;5.30;;;8.40;43.20;;;;;;5034974;28;20445;-72
2021/05/02 07:10:44;;;;;;;12.85;5.70;;;8.60;41.40;;;;;;5041530;28;20395;-75
2021/05/02 07:13:13;;;;;;;10.57;4.80;;;8.70;41.30;;;;;;5049212;28;20472;-77
2021/05/02 07:15:41;;;;;;;8.05;4.65;;;8.80;40.10;;;;;;5048028;28;20380;-74
2021/05/02 07:18:10;;;;;;;13.52;5.85;;;8.50;40.30;;;;;;5053717;28;20386;-75
2021/05/02 07:20:36;;;;;;;8.90;5.63;;;8.40;43.00;;;;;;5051045;28;20425;-79
2021/05/02 07:23:02;;;;;;;10.75;5.40;;;8.60;41.60;;;;;;5060571;28;20407;-77
2021/05/02 07:25:28;;;;;;;8.13;5.43;;;8.90;40.10;;;;;;5053404;28;20451;-76
2021/05/02 07:27:53;;;;;;;7.00;4.47;;;9.40;36.90;;;;;;5042466;28;20905;-75
2021/05/02 07:30:21;;;;;;;9.93;5.10;;;9.30;35.90;;;;;;5037540;28;20915;-76
2021/05/02 07:32:50;;;;;;;16.77;4.93;;;9.40;34.60;;;;;;5053869;28;20402;-76
2021/05/02 07:35:15;;;;;;;11.05;5.20;;;9.10;34.30;;;;;;5039000;28;20401;-75
2021/05/02 07:37:41;;;;;;;8.48;4.18;;;9.00;36.20;;;;;;5047347;28;20531;-74
2021/05/02 07:40:08;;;;;;;6.68;4.50;;;9.00;35.80;;;;;;5042001;28;20404;-77
2021/05/02 07:42:34;;;;;;;7.87;4.53;;;9.00;35.10;;;;;;5043578;28;20494;-73
2021/05/02 07:45:00;;;;;;;8.52;5.20;;;9.20;33.30;;;;;;5037582;28;20395;-74
2021/05/02 07:47:26;;;;;;;11.43;4.33;;;9.50;33.20;;;;;;5035394;28;20459;-76
2021/05/02 07:49:54;;;;;;;12.75;5.15;;;9.50;31.10;;;;;;5037329;28;20913;-77
2021/05/02 07:52:20;;;;;;;10.75;5.22;;;9.70;30.60;;;;;;5036489;28;20396;-76
2021/05/02 07:54:54;;;;;;;10.68;4.57;;;9.70;31.00;;;;;;5038189;28;20493;-75
2021/05/02 07:57:20;;;;;;;10.40;4.22;;;9.50;31.30;;;;;;5036435;28;20852;-76
2021/05/02 07:59:45;;;;;;;10.77;4.40;;;9.20;32.20;;;;;;5041340;28;20400;-76
2021/05/02 08:02:11;;;;;;;6.13;3.83;;;9.20;32.50;;;;;;5038392;28;20395;-75
2021/05/02 08:04:38;;;;;;;11.65;4.60;;;9.30;31.40;;;;;;5040060;28;20471;-75
2021/05/02 08:07:05;;;;;;;11.75;3.70;;;9.10;32.10;;;;;;5054280;28;20393;-75
2021/05/02 08:09:31;;;;;;;7.40;3.50;;;9.10;30.80;;;;;;5033086;28;20391;-75
2021/05/02 08:11:59;;;;;;;8.23;3.75;;;9.30;30.00;;;;;;5053615;28;20460;-75
2021/05/02 08:14:24;;;;;;;7.07;4.45;;;9.40;28.90;;;;;;5041352;28;20407;-75
2021/05/02 08:16:50;;;;;;;6.73;3.90;;;9.60;28.60;;;;;;5051717;28;20528;-76
2021/05/02 08:19:16;;;;;;;7.53;4.40;;;9.70;27.40;;;;;;5048028;28;20419;-75
2021/05/02 08:21:44;;;;;;;8.70;4.70;;;9.70;27.80;;;;;;5043486;28;20905;-75
2021/05/02 08:24:12;;;;;;;5.90;3.60;;;9.90;28.40;;;;;;5047021;28;20402;-75
2021/05/02 08:26:38;;;;;;;8.30;4.00;;;10.00;26.90;;;;;;5037714;28;20947;-75
2021/05/02 08:29:04;;;;;;;7.43;3.97;;;9.90;27.30;;;;;;5037904;28;20910;-75
2021/05/02 08:31:29;;;;;;;8.40;4.20;;;9.80;26.70;;;;;;5039090;28;20407;-75
2021/05/02 08:33:55;;;;;;;7.80;3.53;;;9.60;26.20;;;;;;5046521;28;20451;-75
2021/05/02 08:36:20;;;;;;;7.80;4.20;;;9.50;26.80;;;;;;5033152;28;20409;-74
2021/05/02 08:38:46;;;;;;;6.18;3.80;;;10.00;26.90;;;;;;5048496;28;20393;-75
2021/05/02 08:41:12;;;;;;;9.82;3.95;;;10.20;24.90;;;;;;5046924;28;20803;-75
2021/05/02 08:43:37;;;;;;;6.47;4.03;;;10.10;25.90;;;;;;5050204;28;20477;-75
2021/05/02 08:46:03;;;;;;;9.23;4.18;;;10.40;25.00;;;;;;5050026;28;20397;-74
2021/05/02 08:48:29;;;;;;;9.43;4.40;;;10.30;24.00;;;;;;5044622;28;20406;-75
2021/05/02 08:50:56;;;;;;;7.40;3.20;;;10.50;22.40;;;;;;5050043;28;20886;-74
2021/05/02 08:53:22;;;;;;;11.80;3.80;;;10.70;19.80;;;;;;5043265;28;20860;-74
2021/05/02 08:55:48;;;;;;;11.35;3.60;;;10.50;19.80;;;;;;5043779;28;20428;-75
2021/05/02 08:58:21;;;;;;;8.38;4.10;;;10.50;21.10;;;;;;5042680;28;20410;-75
2021/05/02 09:00:48;;;;;;;7.65;3.97;;;10.90;19.70;;;;;;5047391;28;20386;-76
2021/05/02 09:03:14;;;;;;;8.40;4.65;;;10.80;20.00;;;;;;5049875;28;20400;-76
2021/05/02 09:05:50;;;;;;;8.27;4.50;;;10.50;21.00;;;;;;5045388;28;20403;-75
2021/05/02 09:08:35;;;;;;;9.48;4.20;;;10.40;22.10;;;;;;5040672;28;20391;-76
2021/05/02 09:11:02;;;;;;;4.05;2.20;;;10.60;20.30;;;;;;5046866;28;20393;-76
2021/05/02 09:13:29;;;;;;;6.97;3.10;;;10.30;18.80;;;;;;5044684;28;20440;-76
2021/05/02 09:16:03;;;;;;;8.40;3.60;;;10.30;19.40;;;;;;5047431;28;20381;-77
2021/05/02 09:18:37;;;;;;;7.80;3.80;;;10.60;18.50;;;;;;5043386;28;20399;-75
2021/05/02 09:21:08;;;;;;;9.40;3.20;;;11.20;17.10;;;;;;5042438;28;20957;-72
2021/05/02 09:23:38;;;;;;;4.25;3.10;;;11.90;15.90;;;;;;5046979;28;20449;-72
2021/05/02 09:26:05;;;;;;;12.25;3.90;;;11.70;16.10;;;;;;5039819;28;20397;-71
2021/05/02 09:28:49;;;;;;;7.53;2.90;;;12.10;15.20;;;;;;5037749;28;20461;-71
2021/05/02 09:31:23;;;;;;;7.20;2.80;;;11.70;14.80;;;;;;5042032;28;20842;-73
2021/05/02 09:33:50;;;;;;;4.82;3.10;;;11.40;15.60;;;;;;5049314;28;20803;-72
2021/05/02 09:36:17;;;;;;;6.20;3.00;;;11.50;16.00;;;;;;5036536;28;20407;-72
2021/05/02 09:38:44;;;;;;;6.07;2.95;;;11.70;15.40;;;;;;5046348;28;20487;-72
2021/05/02 09:41:12;;;;;;;8.02;2.85;;;11.50;15.60;;;;;;5039386;28;20477;-73
2021/05/02 09:43:43;;;;;;;4.70;2.67;;;11.10;15.80;;;;;;5038274;28;20421;-77
2021/05/02 09:46:08;;;;;;;6.28;2.70;;;10.50;17.30;;;;;;5059953;28;20400;-74
2021/05/02 09:48:34;;;;;;;5.73;3.10;;;10.60;17.90;;;;;;5055888;28;20401;-75
2021/05/02 09:51:12;;;;;;;5.10;3.40;;;11.10;16.60;;;;;;5050289;28;20480;-75
2021/05/02 09:53:38;;;;;;;5.38;2.80;;;11.70;15.40;;;;;;5050232;28;20445;-75
2021/05/02 09:56:14;;;;;;;4.00;2.10;;;12.10;12.70;;;;;;5042495;28;20391;-75
2021/05/02 09:58:39;;;;;;;4.20;2.50;;;11.90;11.20;;;;;;5049015;28;20392;-76
2021/05/02 10:01:06;;;;;;;4.40;2.53;;;11.90;10.70;;;;;;5039776;28;20383;-76
2021/05/02 10:03:35;;;;;;;4.60;1.92;;;11.60;11.70;;;;;;5031227;28;20391;-72
2021/05/02 10:06:08;;;;;;;2.90;1.85;;;11.10;11.60;;;;;;5039696;28;20393;-74
2021/05/02 10:08:35;;;;;;;5.50;2.40;;;10.90;12.50;;;;;;5040007;28;20524;-72
2021/05/02 10:11:06;;;;;;;4.82;2.08;;;11.00;12.80;;;;;;5031194;28;20453;-73
2021/05/02 10:13:32;;;;;;;3.47;1.48;;;11.00;12.40;;;;;;5033696;28;20485;-76
2021/05/02 10:15:58;;;;;;;5.20;2.20;;;11.20;11.90;;;;;;5040915;28;20394;-75
2021/05/02 10:18:24;;;;;;;4.45;2.60;;;11.50;11.40;;;;;;5044700;28;20389;-73
2021/05/02 10:20:50;;;;;;;4.63;2.30;;;11.70;10.20;;;;;;5041462;28;20542;-73
2021/05/02 10:23:17;;;;;;;8.65;2.50;;;11.50;10.50;;;;;;5048873;28;20391;-74
2021/05/02 10:25:45;;;;;;;4.90;2.85;;;11.30;11.20;;;;;;5048148;28;20451;-76
2021/05/02 10:28:22;;;;;;;3.42;2.08;;;11.50;11.20;;;;;;5051387;28;20819;-75
2021/05/02 10:30:50;;;;;;;2.67;2.17;;;11.60;10.10;;;;;;5042805;28;20399;-74
2021/05/02 10:33:34;;;;;;;6.75;2.45;;;11.40;9.80;;;;;;5033419;28;20423;-74
2021/05/02 10:36:03;;;;;;;5.60;2.58;;;11.30;10.80;;;;;;5044210;28;20405;-73
2021/05/02 10:38:49;;;;;;;4.10;2.33;;;11.40;11.30;;;;;;5052071;28;20393;-73
2021/05/02 10:41:35;;;;;;;7.90;2.37;;;11.50;11.70;;;;;;5052009;28;20373;-74
2021/05/02 10:44:06;;;;;;;2.88;2.60;;;11.70;11.90;;;;;;5040021;28;20395;-74
2021/05/02 10:46:44;;;;;;;4.53;2.50;;;12.20;10.90;;;;;;5031018;28;20402;-75
2021/05/02 10:49:20;;;;;;;7.53;2.40;;;13.20;9.00;;;;;;5031570;28;20454;-77
2021/05/02 10:51:46;;;;;;;4.20;2.80;;;13.20;5.90;;;;;;5030927;28;20895;-75
2021/05/02 10:54:42;;;;;;;5.13;2.70;;;13.10;6.20;;;;;;5031919;28;20414;-75
2021/05/02 10:57:32;;;;;;;4.00;2.63;;;13.10;6.90;;;;;;5034396;28;20413;-74
2021/05/02 11:00:13;;;;;;;5.30;2.60;;;13.10;7.20;;;;;;5030493;28;20390;-75
2021/05/02 11:02:48;;;;;;;3.90;2.40;;;12.90;6.60;;;;;;5029576;28;20398;-75
2021/05/02 11:05:16;;;;;;;3.22;2.20;;;12.80;6.30;;;;;;5049231;28;20389;-75
2021/05/02 11:07:43;;;;;;;7.32;2.45;;;13.00;5.70;;;;;;5054604;28;20877;-77
2021/05/02 11:10:19;;;;;;;3.50;2.45;;;13.20;5.20;;;;;;5055351;28;20754;-76
2021/05/02 11:12:46;;;;;;;3.35;2.38;;;13.20;6.00;;;;;;5037967;28;20407;-75
2021/05/02 11:15:32;;;;;;;3.08;1.80;;;12.50;6.80;;;;;;5045629;28;20558;-76
2021/05/02 11:17:58;;;;;;;4.72;2.20;;;12.10;7.40;;;;;;5049243;28;20433;-75
2021/05/02 11:20:46;;;;;;;3.10;2.13;;;12.20;6.60;;;;;;5034900;28;20458;-76
2021/05/02 11:23:12;;;;;;;2.83;2.10;;;11.90;7.40;;;;;;5034577;28;20389;-75
2021/05/02 11:25:50;;;;;;;3.13;2.08;;;11.60;8.30;;;;;;5049980;28;20370;-75
2021/05/02 11:28:57;;;;;;;3.80;2.50;;;11.60;7.90;;;;;;5046445;28;20391;-75
2021/05/02 11:31:44;;;;;;;5.60;2.70;;;12.10;7.80;;;;;;5033853;28;20817;-75
2021/05/02 11:34:10;;;;;;;3.90;2.17;;;12.40;8.00;;;;;;5033426;28;20494;-75
2021/05/02 11:36:40;;;;;;;3.33;1.92;;;12.50;6.10;;;;;;5033774;28;20449;-76
2021/05/02 11:39:07;;;;;;;2.75;2.20;;;12.50;6.50;;;;;;5045488;28;20401;-76
2021/05/02 11:42:03;;;;;;;5.00;2.45;;;12.50;7.90;;;;;;5052578;28;20963;-76
2021/05/02 11:44:29;;;;;;;3.08;2.58;;;12.50;7.40;;;;;;5032383;28;20411;-75
2021/05/02 11:46:55;;;;;;;7.60;3.10;;;12.60;7.30;;;;;;5034410;28;20395;-76
2021/05/02 11:49:21;;;;;;;3.60;2.70;;;12.70;7.40;;;;;;5034301;28;20721;-75
2021/05/02 11:51:58;;;;;;;5.32;2.60;;;12.60;7.40;;;;;;5050521;28;20452;-76
2021/05/02 11:54:24;;;;;;;5.10;2.60;;;12.80;7.50;;;;;;5052736;28;20408;-76
2021/05/02 11:56:51;;;;;;;3.60;2.67;;;13.40;6.70;;;;;;5052497;28;20382;-75
2021/05/02 11:59:17;;;;;;;3.97;2.50;;;13.60;6.40;;;;;;5033854;28;20483;-74
2021/05/02 12:01:46;;;;;;;3.10;2.30;;;13.50;6.70;;;;;;5038046;28;20382;-75
2021/05/02 12:04:18;;;;;;;4.30;2.90;;;13.80;5.80;;;;;;5034784;28;20390;-74
2021/05/02 12:06:45;;;;;;;2.70;2.50;;;13.80;5.70;;;;;;5040354;28;20402;-74
2021/05/02 12:09:14;;;;;;;2.88;2.63;;;13.80;5.60;;;;;;5037056;28;20422;-75
2021/05/02 12:11:42;;;;;;;8.00;2.80;;;13.80;5.80;;;;;;5034412;28;20387;-73
2021/05/02 12:14:08;;;;;;;3.15;2.40;;;13.80;5.80;;;;;;5035153;28;20935;-76
2021/05/02 12:16:33;;;;;;;4.35;2.90;;;13.10;6.70;;;;;;5050573;28;20478;-75
2021/05/02 12:19:02;;;;;;;5.43;2.63;;;12.40;8.20;;;;;;5042808;28;20755;-75
2021/05/02 12:21:35;;;;;;;4.07;2.87;;;12.20;8.90;;;;;;5045464;28;20398;-75
2021/05/02 12:24:24;;;;;;;6.10;3.53;;;12.30;8.70;;;;;;5050799;28;20394;-74
2021/05/02 12:26:57;;;;;;;3.55;2.50;;;12.20;8.60;;;;;;5036579;28;20397;-75
2021/05/02 12:29:25;;;;;;;4.50;2.50;;;11.70;9.40;;;;;;5046821;28;20421;-77
2021/05/02 12:32:10;;;;;;;4.60;2.88;;;11.80;9.30;;;;;;5059661;28;20480;-75
2021/05/02 12:34:48;;;;;;;6.40;2.83;;;12.00;9.20;;;;;;5044825;28;20441;-75
2021/05/02 12:37:15;;;;;;;3.55;2.70;;;12.10;8.90;;;;;;5038827;28;20445;-75
2021/05/02 12:39:43;;;;;;;5.65;2.53;;;11.80;9.50;;;;;;5052030;28;20484;-76
2021/05/02 12:42:09;;;;;;;4.88;2.72;;;11.90;9.40;;;;;;5052210;28;20388;-75
2021/05/02 12:44:41;;;;;;;4.25;2.70;;;12.40;8.60;;;;;;5056986;28;20423;-76
2021/05/02 12:47:17;;;;;;;5.80;2.40;;;12.80;8.00;;;;;;5055966;28;20395;-75
2021/05/02 12:50:00;;;;;;;2.83;2.45;;;13.30;7.40;;;;;;5048526;28;20414;-75
2021/05/02 12:52:33;;;;;;;4.97;2.50;;;13.50;6.20;;;;;;5048851;28;20383;-76
2021/05/02 12:55:18;;;;;;;4.60;2.60;;;14.00;5.10;;;;;;5036441;28;20498;-76